Time;durP1;ratioP1;P1;durP2;ratioP2;P2;SDS_P1;SDS_P2;PMS_P1;PMS_P2;Temp;Humidity;BMP_temperature;BMP_pressure;BME280_temperature;BME280_humidity;BME280_pressure;Samples;Min_cycle;Max_cycle;Signal;HPM_P1;HPM_P2
2023/04/22 00:02:15;;;;;;;11.13;6.70;;;256.40;2252.80;;;;;;5028689;28;20472;-61
2023/04/22 00:04:42;;;;;;;10.68;7.57;;;256.50;2252.80;;;;;;5028879;28;20107;-58
2023/04/22 00:07:08;;;;;;;12.05;6.70;;;256.50;2252.80;;;;;;5029277;28;20029;-58
2023/04/22 00:09:34;;;;;;;18.45;7.13;;;256.50;2252.80;;;;;;5032719;28;20026;-64
2023/04/22 00:12:01;;;;;;;14.73;6.97;;;256.50;2252.80;;;;;;5032325;28;20045;-58
2023/04/22 00:14:26;;;;;;;12.43;6.63;;;256.40;2252.80;;;;;;5032102;28;20038;-58
2023/04/22 00:16:52;;;;;;;10.48;7.05;;;256.40;2252.80;;;;;;5032209;28;20022;-63
2023/04/22 00:19:18;;;;;;;15.68;7.80;;;256.30;2252.80;;;;;;5032016;28;20021;-58
2023/04/22 00:21:44;;;;;;;10.43;7.57;;;256.20;2252.80;;;;;;5032330;28;20026;-58
2023/04/22 00:24:11;;;;;;;17.40;9.88;;;256.00;2252.80;;;;;;5031813;28;20033;-58
2023/04/22 00:26:36;;;;;;;21.73;9.73;;;231.20;2252.80;;;;;;5032276;28;20095;-63
2023/04/22 00:29:02;;;;;;;14.90;9.82;;;231.10;2252.80;;;;;;5031689;28;20471;-58
2023/04/22 00:31:28;;;;;;;18.63;10.80;;;231.00;2252.80;;;;;;5031961;28;20033;-58
2023/04/22 00:33:54;;;;;;;14.40;9.70;;;231.00;2252.80;;;;;;5031732;28;20097;-66
2023/04/22 00:36:19;;;;;;;17.63;10.05;;;230.90;2252.80;;;;;;5014514;28;20090;-58
2023/04/22 00:38:49;;;;;;;15.18;8.77;;;230.80;2252.80;;;;;;5031841;28;20623;-58
2023/04/22 00:41:15;;;;;;;12.65;8.07;;;230.80;2252.80;;;;;;5033003;28;20391;-58
2023/04/22 00:43:40;;;;;;;16.90;7.50;;;230.80;2252.80;;;;;;5035249;28;20022;-58
2023/04/22 00:46:06;;;;;;;13.07;7.13;;;230.90;2252.80;;;;;;5035602;28;20029;-63
2023/04/22 00:48:32;;;;;;;17.05;8.40;;;231.10;2252.80;;;;;;5035499;28;20030;-63
2023/04/22 00:50:58;;;;;;;13.93;8.35;;;231.30;2252.80;;;;;;5036503;28;20037;-59
2023/04/22 00:53:23;;;;;;;17.35;9.23;;;256.10;2252.80;;;;;;5019488;28;20021;-66
2023/04/22 00:55:49;;;;;;;14.85;9.02;;;256.10;2252.80;;;;;;5031602;28;20031;-57
2023/04/22 00:58:17;;;;;;;30.00;10.02;;;256.10;2252.80;;;;;;5018353;28;20114;-57
2023/04/22 01:00:43;;;;;;;16.80;9.38;;;256.10;2252.80;;;;;;5031497;28;20096;-64
2023/04/22 01:03:09;;;;;;;12.30;6.50;;;256.00;2252.80;;;;;;5031599;28;20483;-66
2023/04/22 01:05:35;;;;;;;12.43;6.90;;;231.30;2252.80;;;;;;5031837;28;20025;-61
2023/04/22 01:08:01;;;;;;;13.10;6.97;;;231.30;2252.80;;;;;;5031467;28;20026;-58
2023/04/22 01:10:27;;;;;;;9.73;6.25;;;231.20;2252.80;;;;;;5031343;28;20022;-59
2023/04/22 01:12:52;;;;;;;13.88;7.43;;;231.20;2252.80;;;;;;5031216;28;20383;-59
2023/04/22 01:15:18;;;;;;;11.15;6.93;;;231.10;2252.80;;;;;;5031171;28;20044;-66
2023/04/22 01:17:44;;;;;;;13.40;8.93;;;231.10;2252.80;;;;;;5031037;28;20045;-65
2023/04/22 01:20:11;;;;;;;14.82;7.20;;;231.00;2252.80;;;;;;5030385;28;20079;-63
2023/04/22 01:22:41;;;;;;;15.65;8.63;;;230.90;2252.80;;;;;;5031213;28;20029;-58
2023/04/22 01:25:10;;;;;;;15.82;8.27;;;230.90;2252.80;;;;;;5031098;28;20384;-58
2023/04/22 01:27:37;;;;;;;11.98;8.35;;;230.80;2252.80;;;;;;5030682;28;20032;-63
2023/04/22 01:30:04;;;;;;;13.80;8.10;;;230.80;2252.80;;;;;;5031307;28;20486;-58
2023/04/22 01:32:31;;;;;;;12.25;8.38;;;230.80;2252.80;;;;;;5013223;28;20029;-67
2023/04/22 01:34:57;;;;;;;14.93;7.68;;;230.90;2252.80;;;;;;5031087;28;20029;-58
2023/04/22 01:37:23;;;;;;;15.65;6.40;;;231.00;2252.80;;;;;;5030808;28;20025;-66
2023/04/22 01:39:49;;;;;;;12.55;7.45;;;231.10;2252.80;;;;;;5030599;28;20372;-58
2023/04/22 01:42:15;;;;;;;17.13;7.20;;;231.10;2252.80;;;;;;5030786;28;20034;-58
2023/04/22 01:44:41;;;;;;;11.80;7.47;;;231.10;2252.80;;;;;;5030591;28;20035;-67
2023/04/22 01:47:06;;;;;;;18.27;7.70;;;231.20;2252.80;;;;;;5030615;28;20048;-58
2023/04/22 01:49:32;;;;;;;10.45;6.78;;;231.20;2252.80;;;;;;5030606;28;20044;-58
2023/04/22 01:52:00;;;;;;;13.00;7.18;;;231.30;2252.80;;;;;;5011954;28;20056;-58
2023/04/22 01:54:25;;;;;;;16.30;6.97;;;256.00;2252.80;;;;;;5030670;28;20083;-57
2023/04/22 01:56:54;;;;;;;11.40;5.97;;;256.00;2252.80;;;;;;5030159;28;20026;-63
2023/04/22 01:59:22;;;;;;;15.45;8.25;;;256.10;2252.80;;;;;;5029999;28;20056;-57
2023/04/22 02:01:48;;;;;;;11.88;6.88;;;256.20;2252.80;;;;;;5030131;28;20022;-58
2023/04/22 02:04:13;;;;;;;16.30;7.80;;;256.30;2252.80;;;;;;5030293;28;20044;-58
2023/04/22 02:06:39;;;;;;;12.57;6.22;;;256.40;2252.80;;;;;;5029176;28;20041;-58
2023/04/22 02:09:05;;;;;;;13.57;7.68;;;256.20;2252.80;;;;;;5030203;28;20380;-58
2023/04/22 02:11:31;;;;;;;10.65;7.00;;;256.10;2252.80;;;;;;5012293;28;20035;-66
2023/04/22 02:13:57;;;;;;;9.68;7.20;;;231.30;2252.80;;;;;;5029849;28;20093;-58
2023/04/22 02:16:22;;;;;;;18.25;12.00;;;231.20;2252.80;;;;;;5028949;28;20037;-60
2023/04/22 02:18:48;;;;;;;14.48;9.55;;;231.20;2252.80;;;;;;5029526;28;20025;-63
2023/04/22 02:21:14;;;;;;;20.73;11.27;;;231.20;2252.80;;;;;;5029939;28;20034;-58
2023/04/22 02:23:40;;;;;;;10.50;6.65;;;231.20;2252.80;;;;;;5029871;28;20424;-64
2023/04/22 02:26:06;;;;;;;11.70;7.57;;;231.10;2252.80;;;;;;5029861;28;20483;-57
2023/04/22 02:28:32;;;;;;;32.70;22.50;;;231.10;2252.80;;;;;;5029616;28;20379;-57
2023/04/22 02:30:58;;;;;;;17.45;7.60;;;231.30;2252.80;;;;;;5029420;28;20029;-60
2023/04/22 02:33:24;;;;;;;14.98;8.30;;;256.00;2252.80;;;;;;5029761;28;20084;-62
2023/04/22 02:35:50;;;;;;;13.23;6.82;;;256.20;2252.80;;;;;;5029339;28;20556;-63
2023/04/22 02:38:15;;;;;;;10.80;6.60;;;256.30;2252.80;;;;;;5029237;28;20038;-58
2023/04/22 02:40:41;;;;;;;7.63;6.20;;;256.40;2252.80;;;;;;5029951;28;20021;-58
2023/04/22 02:43:07;;;;;;;15.00;6.25;;;256.50;2252.80;;;;;;5029144;28;20014;-57
2023/04/22 02:45:33;;;;;;;13.32;6.55;;;256.50;2252.80;;;;;;5029805;28;20447;-57
2023/04/22 02:47:58;;;;;;;14.50;8.48;;;256.40;2252.80;;;;;;5029215;28;20025;-57
2023/04/22 02:50:24;;;;;;;10.73;5.72;;;256.20;2252.80;;;;;;5029480;28;20120;-56
2023/04/22 02:52:50;;;;;;;24.48;22.42;;;256.30;2252.80;;;;;;5029530;28;20025;-58
2023/04/22 02:55:16;;;;;;;18.67;7.07;;;256.40;2252.80;;;;;;5029712;28;20025;-66
2023/04/22 02:57:41;;;;;;;8.32;6.53;;;256.30;2252.80;;;;;;5029381;28;20503;-65
2023/04/22 03:00:09;;;;;;;16.50;7.38;;;256.20;2252.80;;;;;;5011423;28;20435;-61
2023/04/22 03:02:35;;;;;;;9.05;6.88;;;256.10;2252.80;;;;;;5029343;28;20053;-62
2023/04/22 03:05:01;;;;;;;11.73;7.63;;;256.00;2252.80;;;;;;5029007;28;20014;-65
2023/04/22 03:07:27;;;;;;;11.68;8.05;;;231.30;2252.80;;;;;;5028845;28;20068;-58
2023/04/22 03:09:54;;;;;;;13.65;7.70;;;231.20;2252.80;;;;;;5029130;28;20049;-58
2023/04/22 03:12:20;;;;;;;11.95;7.57;;;231.20;2252.80;;;;;;5029205;28;20040;-57
2023/04/22 03:14:46;;;;;;;13.77;7.80;;;231.10;2252.80;;;;;;5029118;28;20017;-63
2023/04/22 03:17:12;;;;;;;11.45;7.60;;;231.10;2252.80;;;;;;5029149;28;20372;-66
2023/04/22 03:19:37;;;;;;;13.32;7.38;;;231.20;2252.80;;;;;;5028988;28;20399;-63
2023/04/22 03:22:03;;;;;;;9.77;6.65;;;231.20;2252.80;;;;;;5029172;28;20425;-58
2023/04/22 03:24:29;;;;;;;9.63;6.72;;;256.00;2252.80;;;;;;5028682;28;20030;-66
2023/04/22 03:26:55;;;;;;;11.07;6.07;;;256.00;2252.80;;;;;;5029125;28;20160;-57
2023/04/22 03:29:21;;;;;;;9.30;6.50;;;256.00;2252.80;;;;;;5028634;28;20026;-65
2023/04/22 03:31:46;;;;;;;15.18;6.55;;;256.10;2252.80;;;;;;5011649;28;20079;-61
2023/04/22 03:34:12;;;;;;;11.55;6.38;;;256.20;2252.80;;;;;;5029219;28;20030;-57
2023/04/22 03:36:38;;;;;;;9.80;6.90;;;256.20;2252.80;;;;;;5028843;28;20029;-57
2023/04/22 03:39:04;;;;;;;14.48;6.70;;;256.30;2252.80;;;;;;5028766;28;20033;-57
2023/04/22 03:41:29;;;;;;;13.48;5.60;;;256.40;2252.80;;;;;;5028718;28;20068;-57
2023/04/22 03:43:55;;;;;;;12.00;6.05;;;256.60;2252.80;;;;;;5032206;28;20021;-64
2023/04/22 03:46:21;;;;;;;11.95;5.93;;;256.80;2252.80;;;;;;5032883;28;20075;-67
2023/04/22 03:48:46;;;;;;;7.85;5.25;;;281.60;2278.40;;;;;;5032498;28;20512;-58
2023/04/22 03:51:12;;;;;;;10.15;5.80;;;281.80;2278.40;;;;;;5032861;28;20108;-66
2023/04/22 03:53:38;;;;;;;13.50;6.55;;;282.00;2278.40;;;;;;5032507;28;20541;-59
2023/04/22 03:56:04;;;;;;;12.13;7.72;;;282.00;2278.40;;;;;;5033000;28;20024;-67
2023/04/22 03:58:30;;;;;;;11.57;5.43;;;282.10;2278.40;;;;;;5032017;28;20037;-66
2023/04/22 04:00:55;;;;;;;13.68;5.05;;;282.20;2278.40;;;;;;5032327;28;20033;-58
2023/04/22 04:03:21;;;;;;;8.68;5.28;;;282.20;2278.40;;;;;;5032257;28;20092;-66
2023/04/22 04:05:47;;;;;;;10.00;5.65;;;282.40;2278.40;;;;;;5032015;28;20486;-66
2023/04/22 04:08:12;;;;;;;8.38;5.70;;;282.50;2278.40;;;;;;5032450;28;20541;-67
2023/04/22 04:10:38;;;;;;;11.10;5.70;;;307.20;2304.00;;;;;;5032325;28;20421;-58
2023/04/22 04:13:04;;;;;;;9.27;5.70;;;307.20;2304.00;;;;;;5032487;28;20025;-57
2023/04/22 04:15:31;;;;;;;7.75;5.30;;;307.20;2304.00;;;;;;5032077;28;20029;-57
2023/04/22 04:17:59;;;;;;;11.27;5.97;;;307.30;2304.00;;;;;;5032205;28;20029;-63
2023/04/22 04:20:25;;;;;;;9.70;5.45;;;307.40;2304.00;;;;;;5032139;28;20056;-57
2023/04/22 04:22:51;;;;;;;10.88;5.65;;;307.50;2304.00;;;;;;5031898;28;20099;-66
2023/04/22 04:25:17;;;;;;;10.82;5.53;;;307.50;2304.00;;;;;;5032191;28;20479;-61
2023/04/22 04:27:43;;;;;;;15.93;7.10;;;307.50;2304.00;;;;;;5031926;28;20032;-57
2023/04/22 04:30:09;;;;;;;14.35;7.10;;;307.50;2304.00;;;;;;5031974;28;20590;-57
2023/04/22 04:32:35;;;;;;;12.57;6.53;;;307.60;2304.00;;;;;;5032032;28;20029;-64
2023/04/22 04:35:02;;;;;;;29.67;14.07;;;307.70;2304.00;;;;;;5031847;28;20479;-67
2023/04/22 04:37:27;;;;;;;16.48;12.88;;;307.30;2304.00;;;;;;5031532;28;20037;-58
2023/04/22 04:39:53;;;;;;;16.83;12.82;;;307.30;2304.00;;;;;;5032283;28;20109;-66
2023/04/22 04:42:19;;;;;;;18.40;11.07;;;307.20;2304.00;;;;;;5031642;28;20391;-57
2023/04/22 04:44:47;;;;;;;12.98;8.95;;;307.20;2304.00;;;;;;5031707;28;20375;-61
2023/04/22 04:47:13;;;;;;;20.58;11.07;;;307.30;2304.00;;;;;;5031781;28;20018;-59
2023/04/22 04:49:39;;;;;;;22.40;13.13;;;307.50;2304.00;;;;;;5031602;28;20083;-57
2023/04/22 04:52:08;;;;;;;18.23;12.20;;;307.60;2304.00;;;;;;5031494;28;20033;-57
2023/04/22 04:54:34;;;;;;;20.17;12.38;;;307.70;2304.00;;;;;;5031787;28;20430;-60
2023/04/22 04:57:00;;;;;;;18.60;11.82;;;307.70;2304.00;;;;;;5031142;28;20013;-57
2023/04/22 04:59:26;;;;;;;13.65;10.70;;;307.80;2304.00;;;;;;5031514;28;20474;-57
2023/04/22 05:01:52;;;;;;;20.40;10.75;;;307.90;2304.00;;;;;;5031380;28;20041;-57
2023/04/22 05:04:18;;;;;;;11.90;7.90;;;307.90;2304.00;;;;;;5031360;28;20471;-56
2023/04/22 05:06:44;;;;;;;41.53;28.88;;;308.00;2304.00;;;;;;5030849;28;20028;-67
2023/04/22 05:09:10;;;;;;;33.83;22.33;;;307.90;2304.00;;;;;;5031064;28;20034;-67
2023/04/22 05:11:35;;;;;;;27.42;19.83;;;307.90;2304.00;;;;;;5030959;28;20507;-66
2023/04/22 05:14:02;;;;;;;25.75;15.77;;;308.00;2304.00;;;;;;5031306;28;20156;-65
2023/04/22 05:16:28;;;;;;;20.05;14.77;;;308.10;2304.00;;;;;;5030806;28;20029;-58
2023/04/22 05:18:54;;;;;;;28.30;14.88;;;308.10;2304.00;;;;;;5031398;28;20033;-63
2023/04/22 05:21:19;;;;;;;20.08;11.32;;;332.80;2329.60;;;;;;5034071;28;20025;-68
2023/04/22 05:23:45;;;;;;;13.82;8.80;;;332.80;2329.60;;;;;;5034000;28;20475;-61
2023/04/22 05:26:11;;;;;;;10.63;7.32;;;332.80;2329.60;;;;;;5033717;28;20030;-58
2023/04/22 05:28:37;;;;;;;10.18;6.95;;;332.90;2329.60;;;;;;5034148;28;20041;-61
2023/04/22 05:31:03;;;;;;;16.25;8.20;;;333.00;2329.60;;;;;;5033055;28;20033;-59
2023/04/22 05:33:29;;;;;;;11.57;7.43;;;332.90;2329.60;;;;;;5030774;28;20030;-57
2023/04/22 05:35:55;;;;;;;13.93;8.57;;;332.90;2329.60;;;;;;5030709;28;20025;-59
2023/04/22 05:38:20;;;;;;;16.35;6.70;;;333.10;2329.60;;;;;;5030380;28;20033;-64
2023/04/22 05:40:46;;;;;;;12.07;6.95;;;333.20;2329.60;;;;;;5031069;28;20068;-63
2023/04/22 05:43:12;;;;;;;11.13;6.40;;;333.20;2329.60;;;;;;5019302;28;20057;-65
2023/04/22 05:45:37;;;;;;;13.15;7.22;;;333.20;2329.60;;;;;;5028990;28;20105;-64
2023/04/22 05:48:05;;;;;;;11.02;7.35;;;333.20;2329.60;;;;;;5030803;28;20109;-65
2023/04/22 05:50:30;;;;;;;14.85;7.93;;;333.20;2329.60;;;;;;5029957;28;20026;-66
2023/04/22 05:52:56;;;;;;;14.23;8.50;;;333.30;2329.60;;;;;;5029674;28;20025;-64
2023/04/22 05:55:22;;;;;;;21.85;9.18;;;333.50;2329.60;;;;;;5030817;28;20087;-57
2023/04/22 05:57:47;;;;;;;11.88;6.82;;;333.60;2329.60;;;;;;5029794;28;20056;-57
2023/04/22 06:00:14;;;;;;;16.98;7.55;;;333.60;2329.60;;;;;;5030401;28;20052;-59
2023/04/22 06:02:39;;;;;;;14.35;8.77;;;333.50;2329.60;;;;;;5029928;28;20025;-66
2023/04/22 06:05:05;;;;;;;159.20;126.82;;;333.50;2329.60;;;;;;5029848;28;20112;-59
2023/04/22 06:07:31;;;;;;;49.90;38.20;;;333.60;2329.60;;;;;;5030241;28;20021;-65
2023/04/22 06:09:57;;;;;;;16.75;11.57;;;358.40;2329.60;;;;;;5029381;28;20543;-58
2023/04/22 06:12:22;;;;;;;13.90;8.73;;;358.50;2329.60;;;;;;5030343;28;20533;-63
2023/04/22 06:14:48;;;;;;;17.75;8.27;;;358.50;2329.60;;;;;;5029726;28;20017;-58
2023/04/22 06:17:14;;;;;;;12.98;7.88;;;358.50;2329.60;;;;;;5030135;28;20041;-57
2023/04/22 06:19:40;;;;;;;12.95;8.75;;;358.70;2329.60;;;;;;5029742;28;20067;-61
2023/04/22 06:22:06;;;;;;;12.75;9.65;;;358.90;2329.60;;;;;;5029703;28;20026;-58
2023/04/22 06:24:31;;;;;;;20.67;12.35;;;359.00;2329.60;;;;;;5029570;28;20025;-66
2023/04/22 06:26:57;;;;;;;16.65;10.40;;;359.10;2329.60;;;;;;5029406;28;20053;-58
2023/04/22 06:29:23;;;;;;;16.73;10.75;;;359.10;2329.60;;;;;;5029363;28;20036;-58
2023/04/22 06:31:49;;;;;;;14.55;10.32;;;359.30;2329.60;;;;;;5029396;28;20053;-58
2023/04/22 06:34:14;;;;;;;12.90;9.63;;;384.20;2329.60;;;;;;5029299;28;20084;-57
2023/04/22 06:36:40;;;;;;;13.63;10.45;;;384.40;2329.60;;;;;;5029493;28;20025;-65
2023/04/22 06:39:06;;;;;;;16.85;11.18;;;384.70;2329.60;;;;;;5028958;28;20061;-57
2023/04/22 06:41:32;;;;;;;17.27;11.10;;;409.90;2355.20;;;;;;5029262;28;20021;-58
2023/04/22 06:43:58;;;;;;;13.77;9.10;;;410.00;2355.20;;;;;;5029048;28;20022;-58
2023/04/22 06:46:24;;;;;;;17.27;9.48;;;410.50;2355.20;;;;;;5029376;28;20079;-58
2023/04/22 06:48:49;;;;;;;18.45;10.15;;;435.30;2304.00;;;;;;5028903;28;20025;-58
2023/04/22 06:51:15;;;;;;;14.60;9.07;;;435.50;2278.40;;;;;;5029220;28;20078;-58
2023/04/22 06:53:41;;;;;;;14.70;9.27;;;435.60;2252.80;;;;;;5028738;28;20041;-67
2023/04/22 06:56:06;;;;;;;17.58;10.00;;;436.10;2201.60;;;;;;5029011;28;20495;-67
2023/04/22 06:58:32;;;;;;;17.90;10.68;;;436.10;2150.40;;;;;;5028806;28;20044;-57
2023/04/22 07:00:58;;;;;;;16.08;11.05;;;436.10;2150.40;;;;;;5028588;28;20372;-66
2023/04/22 07:03:24;;;;;;;18.70;12.02;;;460.90;2201.60;;;;;;5028780;28;20036;-65
2023/04/22 07:05:50;;;;;;;13.15;9.85;;;460.80;2201.60;;;;;;5028836;28;20464;-66
2023/04/22 07:08:16;;;;;;;18.88;9.85;;;460.90;2176.00;;;;;;5027737;28;20101;-71
2023/04/22 07:10:41;;;;;;;13.55;8.95;;;460.90;2150.40;;;;;;5020965;28;20029;-67
2023/04/22 07:13:07;;;;;;;13.73;8.52;;;461.10;2150.40;;;;;;5027678;28;20104;-66
2023/04/22 07:15:33;;;;;;;15.82;9.00;;;461.30;2124.80;;;;;;5028386;28;20068;-68
2023/04/22 07:17:58;;;;;;;15.30;9.15;;;461.40;2124.80;;;;;;5023491;28;20616;-65
2023/04/22 07:20:24;;;;;;;12.77;10.48;;;461.50;2124.80;;;;;;5023336;28;20025;-65
2023/04/22 07:22:51;;;;;;;16.42;8.93;;;486.40;2099.20;;;;;;5028170;28;20484;-68
2023/04/22 07:25:17;;;;;;;15.43;8.57;;;486.60;2073.60;;;;;;5027565;28;20033;-63
2023/04/22 07:27:43;;;;;;;14.15;7.25;;;486.90;2048.00;;;;;;5028483;28;20034;-66
2023/04/22 07:30:10;;;;;;;15.73;6.95;;;487.00;1971.20;;;;;;5028679;28;20044;-65
2023/04/22 07:32:36;;;;;;;14.95;6.72;;;487.10;1945.60;;;;;;5029088;28;20099;-66
2023/04/22 07:35:02;;;;;;;15.52;6.93;;;487.30;1920.00;;;;;;5028767;28;20456;-71
2023/04/22 07:37:27;;;;;;;15.32;8.52;;;512.10;1894.40;;;;;;5028453;28;20042;-65
2023/04/22 07:39:53;;;;;;;11.93;6.57;;;512.20;1868.80;;;;;;5028839;28;20100;-67
2023/04/22 07:42:19;;;;;;;11.45;6.95;;;512.40;1843.20;;;;;;5027905;28;20365;-64
2023/04/22 07:44:45;;;;;;;17.70;6.78;;;537.70;1817.60;;;;;;5028432;28;20084;-70
2023/04/22 07:47:11;;;;;;;16.60;7.97;;;538.10;1792.00;;;;;;5028373;28;20053;-69
2023/04/22 07:49:36;;;;;;;9.63;7.00;;;563.20;1792.00;;;;;;5028591;28;20022;-70
2023/04/22 07:52:02;;;;;;;22.88;7.20;;;563.40;1740.80;;;;;;5028706;28;20092;-71
2023/04/22 07:54:28;;;;;;;12.65;6.30;;;563.60;1689.60;;;;;;5028143;28;20419;-67
2023/04/22 07:56:53;;;;;;;16.08;7.13;;;564.00;1664.00;;;;;;5028602;28;20107;-70
2023/04/22 07:59:19;;;;;;;13.93;6.80;;;589.60;1587.20;;;;;;5028045;28;20049;-66
2023/04/22 08:01:45;;;;;;;13.95;6.68;;;589.70;1536.00;;;;;;5028290;28;20041;-70
2023/04/22 08:04:11;;;;;;;11.68;7.10;;;614.70;1536.00;;;;;;5027067;28;20036;-67
2023/04/22 08:06:37;;;;;;;13.82;8.23;;;614.40;1587.20;;;;;;5028236;28;20103;-67
2023/04/22 08:09:03;;;;;;;9.85;7.20;;;614.70;1561.60;;;;;;5028122;28;20057;-75
2023/04/22 08:11:29;;;;;;;16.77;7.03;;;614.70;1536.00;;;;;;5028211;28;20026;-66
2023/04/22 08:13:54;;;;;;;12.80;6.90;;;640.00;1459.20;;;;;;5028351;28;20041;-71
2023/04/22 08:16:20;;;;;;;14.07;7.78;;;640.80;1433.60;;;;;;5027939;28;20025;-72
2023/04/22 08:18:46;;;;;;;10.40;8.00;;;665.70;1433.60;;;;;;5027883;28;20549;-66
2023/04/22 08:21:11;;;;;;;12.13;7.22;;;665.70;1433.60;;;;;;5028386;28;20036;-66
2023/04/22 08:23:37;;;;;;;16.45;8.65;;;691.20;1408.00;;;;;;5027977;28;20096;-68
2023/04/22 08:26:03;;;;;;;12.18;7.55;;;691.80;1382.40;;;;;;5028185;28;20029;-71
2023/04/22 08:28:29;;;;;;;11.60;8.45;;;691.90;1356.80;;;;;;5028517;28;20686;-72
2023/04/22 08:30:55;;;;;;;12.43;8.48;;;717.20;1331.20;;;;;;5031912;28;20029;-68
2023/04/22 08:33:20;;;;;;;13.07;9.30;;;717.20;1331.20;;;;;;5031808;28;20426;-66
2023/04/22 08:35:46;;;;;;;16.50;8.77;;;692.10;1280.00;;;;;;5031732;28;20026;-66
2023/04/22 08:38:12;;;;;;;12.52;8.57;;;691.80;1280.00;;;;;;5031576;28;20083;-67
2023/04/22 08:40:42;;;;;;;12.93;9.55;;;691.40;1356.80;;;;;;5031140;28;20032;-75
2023/04/22 08:43:08;;;;;;;13.23;8.85;;;691.50;1331.20;;;;;;5031243;28;20033;-68
2023/04/22 08:45:36;;;;;;;15.52;8.52;;;691.20;1305.60;;;;;;5031846;28;20028;-67
2023/04/22 08:48:03;;;;;;;12.63;9.02;;;666.10;1331.20;;;;;;5031656;28;20087;-66
2023/04/22 08:50:30;;;;;;;11.55;7.88;;;640.90;1331.20;;;;;;5031323;28;20021;-66
2023/04/22 08:52:56;;;;;;;11.15;8.68;;;640.70;1331.20;;;;;;5031347;28;20030;-67
2023/04/22 08:55:22;;;;;;;13.98;8.07;;;640.40;1356.80;;;;;;5031342;28;20026;-74
2023/04/22 08:57:49;;;;;;;13.45;7.95;;;640.20;1331.20;;;;;;5030645;28;20498;-69
2023/04/22 09:00:15;;;;;;;16.02;8.75;;;640.00;1356.80;;;;;;5031302;28;20087;-67
2023/04/22 09:02:43;;;;;;;12.25;8.50;;;615.20;1382.40;;;;;;5031083;28;20026;-74
2023/04/22 09:05:11;;;;;;;15.00;7.53;;;615.00;1382.40;;;;;;5031132;28;20444;-68
2023/04/22 09:07:37;;;;;;;10.68;7.32;;;615.10;1356.80;;;;;;5031354;28;20025;-68
2023/04/22 09:10:03;;;;;;;20.15;9.98;;;615.10;1356.80;;;;;;5031054;28;20075;-66
2023/04/22 09:12:30;;;;;;;11.80;7.00;;;615.20;1356.80;;;;;;5030929;28;20472;-68
2023/04/22 09:14:56;;;;;;;10.00;7.20;;;615.10;1408.00;;;;;;5031039;28;20065;-66
2023/04/22 09:17:32;;;;;;;12.07;7.72;;;615.10;1408.00;;;;;;5030981;28;20076;-66
2023/04/22 09:19:59;;;;;;;12.50;7.53;;;614.80;1408.00;;;;;;5030826;28;20022;-66
2023/04/22 09:22:26;;;;;;;12.65;6.80;;;614.90;1382.40;;;;;;5031071;28;20071;-73
2023/04/22 09:24:52;;;;;;;16.17;8.20;;;614.70;1408.00;;;;;;5030565;28;20028;-67
2023/04/22 09:27:20;;;;;;;14.23;9.07;;;614.40;1408.00;;;;;;5030375;28;20387;-67
2023/04/22 09:29:52;;;;;;;12.45;8.98;;;589.70;1408.00;;;;;;5030669;28;20025;-67
2023/04/22 09:32:18;;;;;;;10.00;7.72;;;589.30;1433.60;;;;;;5030420;28;20033;-66
2023/04/22 09:34:54;;;;;;;15.32;7.70;;;564.00;1459.20;;;;;;5031018;28;20037;-66
2023/04/22 09:37:23;;;;;;;13.88;8.00;;;589.10;1459.20;;;;;;5030079;28;20360;-68
2023/04/22 09:39:50;;;;;;;13.00;9.00;;;588.90;1459.20;;;;;;5029290;28;20383;-67
2023/04/22 09:42:20;;;;;;;19.95;8.93;;;564.00;1459.20;;;;;;5030412;28;20057;-68
2023/04/22 09:44:54;;;;;;;12.15;7.53;;;564.00;1536.00;;;;;;5030629;28;20048;-66
2023/04/22 09:47:22;;;;;;;10.38;7.55;;;588.80;1484.80;;;;;;5030241;28;20033;-68
2023/04/22 09:49:49;;;;;;;13.05;9.20;;;589.00;1484.80;;;;;;5029748;28;20471;-66
2023/04/22 09:52:27;;;;;;;13.27;8.52;;;588.80;1433.60;;;;;;5030579;28;20173;-66
2023/04/22 09:54:53;;;;;;;12.43;8.90;;;588.90;1484.80;;;;;;5029988;28;20033;-75
2023/04/22 09:57:20;;;;;;;11.98;7.95;;;589.10;1484.80;;;;;;5029673;28;20033;-66
2023/04/22 09:59:48;;;;;;;14.85;8.50;;;564.10;1459.20;;;;;;5029691;28;20458;-66
2023/04/22 10:02:14;;;;;;;11.35;7.72;;;563.70;1484.80;;;;;;5030173;28;20021;-66
2023/04/22 10:04:41;;;;;;;9.57;7.22;;;563.90;1510.40;;;;;;5030018;28;20116;-66
2023/04/22 10:07:07;;;;;;;12.90;8.00;;;563.40;1536.00;;;;;;5030071;28;20075;-67
2023/04/22 10:09:33;;;;;;;13.32;7.50;;;563.40;1561.60;;;;;;5029791;28;20033;-67
2023/04/22 10:12:00;;;;;;;10.27;7.47;;;563.30;1484.80;;;;;;5029950;28;20040;-67
2023/04/22 10:14:26;;;;;;;11.50;7.15;;;563.60;1561.60;;;;;;5016748;28;20030;-67
2023/04/22 10:16:57;;;;;;;11.65;7.07;;;563.60;1510.40;;;;;;5029594;28;20049;-66
2023/04/22 10:19:24;;;;;;;10.50;7.93;;;563.30;1587.20;;;;;;5029164;28;20479;-66
2023/04/22 10:21:55;;;;;;;10.90;7.65;;;563.40;1536.00;;;;;;5029479;28;20022;-67
2023/04/22 10:24:23;;;;;;;12.27;7.38;;;563.30;1561.60;;;;;;5029344;28;20364;-66
2023/04/22 10:27:05;;;;;;;15.27;8.48;;;563.20;1587.20;;;;;;5029142;28;20068;-67
2023/04/22 10:29:38;;;;;;;10.10;6.78;;;538.40;1433.60;;;;;;5029147;28;20468;-67
2023/04/22 10:32:16;;;;;;;9.63;6.68;;;538.50;1510.40;;;;;;5029756;28;20087;-67
2023/04/22 10:34:43;;;;;;;8.60;6.50;;;538.40;1459.20;;;;;;5029551;28;20037;-67
2023/04/22 10:37:11;;;;;;;10.20;7.53;;;538.30;1433.60;;;;;;5029096;28;20490;-66
2023/04/22 10:39:38;;;;;;;10.40;7.40;;;538.50;1587.20;;;;;;5029365;28;20108;-67
2023/04/22 10:42:10;;;;;;;9.05;6.32;;;563.30;1459.20;;;;;;5029540;28;20037;-74
2023/04/22 10:44:58;;;;;;;8.27;6.90;;;563.40;1484.80;;;;;;5029223;28;20376;-67
2023/04/22 10:47:33;;;;;;;10.38;7.03;;;563.60;1484.80;;;;;;5029395;28;20033;-67
2023/04/22 10:50:11;;;;;;;12.07;9.13;;;563.70;1510.40;;;;;;5029056;28;20033;-68
2023/04/22 10:52:41;;;;;;;13.00;7.63;;;563.80;1484.80;;;;;;5029026;28;20052;-67
2023/04/22 10:55:07;;;;;;;14.40;9.18;;;564.00;1484.80;;;;;;5029214;28;20525;-67
2023/04/22 10:57:40;;;;;;;8.38;7.43;;;564.00;1484.80;;;;;;5028823;28;20112;-67
2023/04/22 11:00:20;;;;;;;12.88;9.73;;;563.90;1331.20;;;;;;5029206;28;20057;-67
2023/04/22 11:03:06;;;;;;;12.05;7.47;;;563.80;1382.40;;;;;;5028983;28;20037;-70
2023/04/22 11:05:33;;;;;;;14.77;9.70;;;538.40;1331.20;;;;;;5028955;28;20029;-67
2023/04/22 11:08:19;;;;;;;10.25;8.10;;;538.40;1331.20;;;;;;5028286;28;20021;-66
2023/04/22 11:10:48;;;;;;;9.10;6.90;;;538.30;1356.80;;;;;;5027836;28;20049;-70
2023/04/22 11:13:15;;;;;;;12.15;6.25;;;538.20;1356.80;;;;;;5028781;28;20155;-66
2023/04/22 11:15:44;;;;;;;15.57;8.90;;;537.90;1356.80;;;;;;5028977;28;20029;-66
2023/04/22 11:18:16;;;;;;;10.05;7.03;;;537.70;1382.40;;;;;;5028892;28;20037;-67
2023/04/22 11:20:42;;;;;;;11.20;7.35;;;537.60;1382.40;;;;;;5028825;28;20026;-67
2023/04/22 11:23:08;;;;;;;9.45;6.40;;;537.80;1408.00;;;;;;5028639;28;20029;-66
2023/04/22 11:25:34;;;;;;;9.82;6.25;;;537.90;1382.40;;;;;;5028923;28;20022;-67
2023/04/22 11:28:00;;;;;;;11.10;6.32;;;537.90;1408.00;;;;;;5028367;28;20106;-66
2023/04/22 11:30:27;;;;;;;10.95;6.82;;;537.90;1382.40;;;;;;5015867;28;20088;-67
2023/04/22 11:32:56;;;;;;;10.48;7.10;;;538.00;1408.00;;;;;;5028862;28;20021;-65
2023/04/22 11:35:32;;;;;;;12.15;7.45;;;538.00;1356.80;;;;;;5028518;28;20022;-66
2023/04/22 11:38:03;;;;;;;10.52;7.90;;;538.00;1408.00;;;;;;5028389;28;20045;-65
2023/04/22 11:40:33;;;;;;;13.32;7.57;;;537.70;1305.60;;;;;;5028529;28;20080;-65
2023/04/22 11:43:01;;;;;;;10.68;7.43;;;538.00;1356.80;;;;;;5028309;28;20427;-68
2023/04/22 11:45:29;;;;;;;10.98;6.97;;;538.00;1305.60;;;;;;5028889;28;20021;-66
2023/04/22 11:47:55;;;;;;;11.07;7.70;;;538.10;1305.60;;;;;;5028772;28;20035;-67
2023/04/22 11:50:23;;;;;;;8.70;5.72;;;538.20;1305.60;;;;;;5028782;28;20463;-72
2023/04/22 11:53:16;;;;;;;9.23;6.13;;;538.20;1305.60;;;;;;5028787;28;20030;-65
2023/04/22 11:55:43;;;;;;;25.45;20.38;;;563.30;1331.20;;;;;;5028549;28;20104;-72
2023/04/22 11:58:10;;;;;;;10.93;6.05;;;538.50;1228.80;;;;;;5028149;28;20391;-65
2023/04/22 12:00:48;;;;;;;10.73;7.22;;;538.50;1254.40;;;;;;5028443;28;20479;-68
2023/04/22 12:03:18;;;;;;;8.30;6.25;;;538.50;1254.40;;;;;;5029264;28;20032;-65
2023/04/22 12:05:45;;;;;;;8.48;5.50;;;563.50;1305.60;;;;;;5032301;28;20037;-67
2023/04/22 12:08:14;;;;;;;12.98;6.00;;;563.60;1254.40;;;;;;5032336;28;20376;-66